createdAt,value
2018-09-27T00:00:53.949Z,1027.52
2018-09-27T00:02:03.112Z,1027.54
2018-09-27T00:03:12.787Z,1027.56
2018-09-27T00:04:22.204Z,1027.55
2018-09-27T00:05:31.392Z,1027.55
2018-09-27T00:06:40.813Z,1027.53
2018-09-27T00:07:50.510Z,1027.54
2018-09-27T00:09:00.206Z,1027.51
2018-09-27T00:10:10.145Z,1027.51
2018-09-27T00:11:19.592Z,1027.5
2018-09-27T00:12:29.012Z,1027.49
2018-09-27T00:13:38.194Z,1027.45
2018-09-27T00:14:47.629Z,1027.41
2018-09-27T00:15:57.577Z,1027.42
2018-09-27T00:17:07.019Z,1027.4
2018-09-27T00:18:16.699Z,1027.4
2018-09-27T00:19:26.127Z,1027.38
2018-09-27T00:20:35.421Z,1027.37
2018-09-27T00:21:45.118Z,1027.37
2018-09-27T00:22:54.283Z,1027.36
2018-09-27T00:24:03.706Z,1027.37
2018-09-27T00:25:13.138Z,1027.33
2018-09-27T00:26:22.558Z,1027.31
2018-09-27T00:27:31.733Z,1027.36
2018-09-27T00:28:40.887Z,1027.36
2018-09-27T00:29:50.047Z,1027.37
2018-09-27T00:30:59.466Z,1027.38
2018-09-27T00:32:09.146Z,1027.42
2018-09-27T00:33:18.318Z,1027.44
2018-09-27T00:34:28.264Z,1027.4
2018-09-27T00:35:38.212Z,1027.37
2018-09-27T00:36:47.636Z,1027.38
2018-09-27T00:37:56.818Z,1027.34
2018-09-27T00:39:06.242Z,1027.37
2018-09-27T00:40:15.663Z,1027.41
2018-09-27T00:41:25.328Z,1027.38
2018-09-27T00:42:34.761Z,1027.37
2018-09-27T00:43:43.936Z,1027.34
2018-09-27T00:44:53.614Z,1027.32
2018-09-27T00:46:03.567Z,1027.3
2018-09-27T00:47:12.747Z,1027.3
2018-09-27T00:48:22.177Z,1027.31
2018-09-27T00:49:31.340Z,1027.3
2018-09-27T00:50:40.753Z,1027.34
2018-09-27T00:51:49.931Z,1027.29
2018-09-27T00:52:59.360Z,1027.29
2018-09-27T00:54:08.530Z,1027.25
2018-09-27T00:55:17.958Z,1027.24
2018-09-27T00:56:27.372Z,1027.17
2018-09-27T00:57:37.062Z,1027.16
2018-09-27T00:58:46.479Z,1027.12
2018-09-27T00:59:55.651Z,1027.16
2018-09-27T01:01:05.341Z,1027.17
2018-09-27T01:02:14.530Z,1027.16
2018-09-27T01:03:24.475Z,1027.17
2018-09-27T01:04:33.641Z,1027.18
2018-09-27T01:05:43.323Z,1027.14
2018-09-27T01:06:52.599Z,1027.11
2018-09-27T01:08:02.027Z,1027.1
2018-09-27T01:09:11.452Z,1027.05
2018-09-27T01:10:20.605Z,1027.04
2018-09-27T01:11:30.027Z,1027.08
2018-09-27T01:12:39.458Z,1027.05
2018-09-27T01:13:49.142Z,1027.06
2018-09-27T01:14:58.746Z,1027.09
2018-09-27T01:16:08.200Z,1027.08
2018-09-27T01:17:17.908Z,1027.08
2018-09-27T01:18:26.879Z,1027.04
2018-09-27T01:19:36.049Z,1027.05
2018-09-27T01:20:45.536Z,1027.04
2018-09-27T01:21:54.630Z,1027.04
2018-09-27T01:23:04.320Z,1027.05
2018-09-27T01:24:14.012Z,1027.03
2018-09-27T01:25:23.693Z,1027.03
2018-09-27T01:26:32.869Z,1027.02
2018-09-27T01:27:42.091Z,1027.04
2018-09-27T01:28:52.031Z,1027.01
2018-09-27T01:30:01.987Z,1026.98
2018-09-27T01:31:10.892Z,1026.99
2018-09-27T01:32:20.576Z,1026.95
2018-09-27T01:33:29.739Z,1026.94
2018-09-27T01:34:39.416Z,1026.94
2018-09-27T01:35:48.580Z,1026.92
2018-09-27T01:36:58.256Z,1026.88
2018-09-27T01:38:07.941Z,1026.88
2018-09-27T01:39:17.362Z,1026.91
2018-09-27T01:40:26.533Z,1026.89
2018-09-27T01:41:36.245Z,1026.86
2018-09-27T01:42:45.418Z,1026.88
2018-09-27T01:43:54.576Z,1026.9
2018-09-27T01:45:03.997Z,1026.91
2018-09-27T01:46:13.934Z,1026.92
2018-09-27T01:47:23.619Z,1026.92
2018-09-27T01:48:33.080Z,1026.89
2018-09-27T01:49:43.088Z,1026.88
2018-09-27T01:50:51.988Z,1026.88
2018-09-27T01:52:01.975Z,1026.85
2018-09-27T01:53:11.421Z,1026.81
2018-09-27T01:54:20.837Z,1026.78
2018-09-27T01:55:30.770Z,1026.81
2018-09-27T01:56:39.938Z,1026.81
2018-09-27T01:57:49.416Z,1026.83
2018-09-27T01:58:58.605Z,1026.85
2018-09-27T02:00:08.032Z,1026.85
2018-09-27T02:01:17.190Z,1026.82
2018-09-27T02:02:26.610Z,1026.85
2018-09-27T02:03:35.780Z,1026.79
2018-09-27T02:04:45.215Z,1026.81
2018-09-27T02:05:54.388Z,1026.83
2018-09-27T02:07:04.334Z,1026.81
2018-09-27T02:08:13.486Z,1026.82
2018-09-27T02:09:22.677Z,1026.84
2018-09-27T02:10:32.350Z,1026.87
2018-09-27T02:11:41.775Z,1026.87
2018-09-27T02:12:50.943Z,1026.89
2018-09-27T02:14:00.633Z,1026.83
2018-09-27T02:15:10.325Z,1026.83
2018-09-27T02:16:20.012Z,1026.79
2018-09-27T02:17:29.707Z,1026.75
2018-09-27T02:18:38.878Z,1026.74
2018-09-27T02:19:47.793Z,1026.77
2018-09-27T02:20:56.715Z,1026.75
2018-09-27T02:22:06.455Z,1026.77
2018-09-27T02:23:15.356Z,1026.78
2018-09-27T02:24:24.271Z,1026.84
2018-09-27T02:25:33.957Z,1026.81
2018-09-27T02:26:42.871Z,1026.84
2018-09-27T02:27:52.564Z,1026.83
2018-09-27T02:29:01.977Z,1026.8
2018-09-27T02:30:11.419Z,1026.81
2018-09-27T02:31:21.128Z,1026.81
2018-09-27T02:32:30.828Z,1026.81
2018-09-27T02:33:40.265Z,1026.84
2018-09-27T02:34:50.199Z,1026.82
2018-09-27T02:36:00.145Z,1026.78
2018-09-27T02:37:09.063Z,1026.77
2018-09-27T02:38:18.782Z,1026.78
2018-09-27T02:39:28.225Z,1026.8
2018-09-27T02:40:37.904Z,1026.75
2018-09-27T02:41:47.591Z,1026.76
2018-09-27T02:42:56.752Z,1026.74
2018-09-27T02:44:06.175Z,1026.72
2018-09-27T02:45:15.606Z,1026.7
2018-09-27T02:46:25.547Z,1026.67
2018-09-27T02:47:34.471Z,1026.67
2018-09-27T02:48:43.899Z,1026.69
2018-09-27T02:49:53.579Z,1026.67
2018-09-27T02:51:03.007Z,1026.7
2018-09-27T02:52:12.453Z,1026.65
2018-09-27T02:53:21.631Z,1026.68
2018-09-27T02:54:31.600Z,1026.65
2018-09-27T02:55:41.030Z,1026.64
2018-09-27T02:56:50.742Z,1026.62
2018-09-27T02:58:00.169Z,1026.65
2018-09-27T02:59:10.107Z,1026.62
2018-09-27T03:00:20.045Z,1026.6
2018-09-27T03:01:29.475Z,1026.58
2018-09-27T03:02:38.395Z,1026.55
2018-09-27T03:03:48.073Z,1026.56
2018-09-27T03:04:58.013Z,1026.55
2018-09-27T03:06:07.457Z,1026.54
2018-09-27T03:07:17.149Z,1026.58
2018-09-27T03:08:26.852Z,1026.6
2018-09-27T03:09:36.293Z,1026.57
2018-09-27T03:10:45.712Z,1026.57
2018-09-27T03:11:54.899Z,1026.55
2018-09-27T03:13:04.116Z,1026.53
2018-09-27T03:14:13.555Z,1026.52
2018-09-27T03:15:22.732Z,1026.47
2018-09-27T03:16:32.150Z,1026.55
2018-09-27T03:17:41.586Z,1026.5
2018-09-27T03:18:51.019Z,1026.52
2018-09-27T03:20:00.442Z,1026.46
2018-09-27T03:21:09.873Z,1026.51
2018-09-27T03:22:19.879Z,1026.44
2018-09-27T03:23:29.037Z,1026.4
2018-09-27T03:24:38.193Z,1026.41
2018-09-27T03:25:47.632Z,1026.39
2018-09-27T03:26:57.582Z,1026.31
2018-09-27T03:28:07.253Z,1026.37
2018-09-27T03:29:16.937Z,1026.3
2018-09-27T03:30:26.371Z,1026.3
2018-09-27T03:31:36.330Z,1026.3
2018-09-27T03:32:46.324Z,1026.3
2018-09-27T03:33:56.003Z,1026.32
2018-09-27T03:35:05.956Z,1026.3
2018-09-27T03:36:15.387Z,1026.26
2018-09-27T03:37:24.305Z,1026.27
2018-09-27T03:38:34.006Z,1026.24
2018-09-27T03:39:44.036Z,1026.26
2018-09-27T03:40:54.248Z,1026.22
2018-09-27T03:42:03.686Z,1026.25
2018-09-27T03:43:13.117Z,1026.23
2018-09-27T03:44:22.802Z,1026.26
2018-09-27T03:45:32.222Z,1026.24
2018-09-27T03:46:41.382Z,1026.24
2018-09-27T03:47:51.077Z,1026.19
2018-09-27T03:49:00.749Z,1026.23
2018-09-27T03:50:10.180Z,1026.17
2018-09-27T03:51:19.633Z,1026.2
2018-09-27T03:52:29.585Z,1026.14
2018-09-27T03:53:39.530Z,1026.17
2018-09-27T03:54:49.242Z,1026.13
2018-09-27T03:55:58.651Z,1026.15
2018-09-27T03:57:07.839Z,1026.11
2018-09-27T03:58:16.765Z,1026.12
2018-09-27T03:59:26.498Z,1026.12
2018-09-27T04:00:36.443Z,1026.14
2018-09-27T04:01:46.120Z,1026.13
2018-09-27T04:02:55.561Z,1026.12
2018-09-27T04:04:05.262Z,1026.13
2018-09-27T04:05:14.434Z,1026.09
2018-09-27T04:06:23.888Z,1026.08
2018-09-27T04:07:33.306Z,1026.07
2018-09-27T04:08:42.743Z,1026.06
2018-09-27T04:09:52.170Z,1026.07
2018-09-27T04:11:01.711Z,1026.05
2018-09-27T04:12:11.394Z,1026.03
2018-09-27T04:13:21.081Z,1026.01
2018-09-27T04:14:30.247Z,1025.99
2018-09-27T04:15:39.187Z,1026.02
2018-09-27T04:16:48.798Z,1025.98
2018-09-27T04:17:58.493Z,1025.99
2018-09-27T04:19:07.922Z,1026
2018-09-27T04:20:17.616Z,1025.97
2018-09-27T04:21:27.034Z,1025.99
2018-09-27T04:22:36.196Z,1025.96
2018-09-27T04:23:45.641Z,1025.93
2018-09-27T04:24:55.537Z,1025.97
2018-09-27T04:26:05.479Z,1026
2018-09-27T04:27:15.150Z,1026.01
2018-09-27T04:28:24.578Z,1026.01
2018-09-27T04:29:33.491Z,1026.02
2018-09-27T04:30:43.165Z,1025.96
2018-09-27T04:31:52.602Z,1025.98
2018-09-27T04:33:01.763Z,1025.97
2018-09-27T04:34:11.189Z,1026.01
2018-09-27T04:35:21.572Z,1026.03
2018-09-27T04:36:30.730Z,1026.01
2018-09-27T04:37:40.156Z,1026.03
2018-09-27T04:38:49.592Z,1026.05
2018-09-27T04:39:59.289Z,1026.02
2018-09-27T04:41:08.707Z,1026.05
2018-09-27T04:42:18.157Z,1026.01
2018-09-27T04:43:27.577Z,1026.03
2018-09-27T04:44:37.000Z,1025.99
2018-09-27T04:45:46.767Z,1025.95
2018-09-27T04:46:56.789Z,1025.98
2018-09-27T04:48:06.714Z,1026
2018-09-27T04:49:15.883Z,1025.96
2018-09-27T04:50:25.585Z,1025.99
2018-09-27T04:51:35.501Z,1026.02
2018-09-27T04:52:45.148Z,1026.01
2018-09-27T04:53:54.564Z,1026.03
2018-09-27T04:55:03.478Z,1026
2018-09-27T04:56:12.720Z,1026
2018-09-27T04:57:22.706Z,1025.94
2018-09-27T04:58:32.177Z,1025.98
2018-09-27T04:59:41.887Z,1025.97
2018-09-27T05:00:51.348Z,1025.95
2018-09-27T05:02:00.763Z,1025.94
2018-09-27T05:03:10.460Z,1025.93
2018-09-27T05:04:20.394Z,1025.91
2018-09-27T05:05:29.573Z,1025.93
2018-09-27T05:06:38.734Z,1025.91
2018-09-27T05:07:48.422Z,1025.92
2018-09-27T05:08:57.333Z,1025.89
2018-09-27T05:10:07.028Z,1025.92
2018-09-27T05:11:16.461Z,1025.91
2018-09-27T05:12:25.898Z,1025.93
2018-09-27T05:13:35.595Z,1025.89
2018-09-27T05:14:44.767Z,1025.89
2018-09-27T05:15:54.471Z,1025.9
2018-09-27T05:17:04.102Z,1025.86
2018-09-27T05:18:13.540Z,1025.87
2018-09-27T05:19:22.970Z,1025.89
2018-09-27T05:20:33.046Z,1025.84
2018-09-27T05:21:42.631Z,1025.86
2018-09-27T05:22:52.314Z,1025.87
2018-09-27T05:24:01.750Z,1025.86
2018-09-27T05:25:11.193Z,1025.83
2018-09-27T05:26:20.111Z,1025.85
2018-09-27T05:27:29.559Z,1025.85
2018-09-27T05:28:39.484Z,1025.83
2018-09-27T05:29:48.659Z,1025.83
2018-09-27T05:30:58.078Z,1025.79
2018-09-27T05:32:08.012Z,1025.78
2018-09-27T05:33:17.885Z,1025.76
2018-09-27T05:34:27.377Z,1025.78
2018-09-27T05:35:37.064Z,1025.8
2018-09-27T05:36:46.498Z,1025.77
2018-09-27T05:37:55.923Z,1025.78
2018-09-27T05:39:05.869Z,1025.84
2018-09-27T05:40:15.561Z,1025.82
2018-09-27T05:41:25.259Z,1025.82
2018-09-27T05:42:34.469Z,1025.81
2018-09-27T05:43:43.618Z,1025.83
2018-09-27T05:44:53.065Z,1025.83
2018-09-27T05:46:02.250Z,1025.81
2018-09-27T05:47:11.420Z,1025.79
2018-09-27T05:48:21.116Z,1025.8
2018-09-27T05:49:30.026Z,1025.79
2018-09-27T05:50:39.465Z,1025.77
2018-09-27T05:51:48.888Z,1025.79
2018-09-27T05:52:58.332Z,1025.75
2018-09-27T05:54:07.246Z,1025.78
2018-09-27T05:55:16.682Z,1025.74
2018-09-27T05:56:26.376Z,1025.75
2018-09-27T05:57:35.881Z,1025.71
2018-09-27T05:58:46.121Z,1025.71
2018-09-27T05:59:55.039Z,1025.74
2018-09-27T06:01:04.476Z,1025.76
2018-09-27T06:02:13.979Z,1025.74
2018-09-27T06:03:23.932Z,1025.77
2018-09-27T06:04:33.813Z,1025.7
2018-09-27T06:05:43.499Z,1025.75
2018-09-27T06:06:52.922Z,1025.72
2018-09-27T06:08:01.830Z,1025.68
2018-09-27T06:09:11.266Z,1025.71
2018-09-27T06:10:20.945Z,1025.65
2018-09-27T06:11:30.762Z,1025.65
2018-09-27T06:12:39.989Z,1025.61
2018-09-27T06:13:49.684Z,1025.65
2018-09-27T06:14:59.643Z,1025.61
2018-09-27T06:16:08.824Z,1025.63
2018-09-27T06:17:18.509Z,1025.66
2018-09-27T06:18:27.414Z,1025.62
2018-09-27T06:19:36.854Z,1025.6
2018-09-27T06:20:46.669Z,1025.59
2018-09-27T06:21:56.100Z,1025.58
2018-09-27T06:23:05.281Z,1025.58
2018-09-27T06:24:14.735Z,1025.58
2018-09-27T06:25:23.705Z,1025.57
2018-09-27T06:26:33.460Z,1025.55
2018-09-27T06:27:42.726Z,1025.52
2018-09-27T06:28:52.425Z,1025.52
2018-09-27T06:30:01.849Z,1025.5
2018-09-27T06:31:11.324Z,1025.52
2018-09-27T06:32:20.497Z,1025.47
2018-09-27T06:33:29.967Z,1025.49
2018-09-27T06:34:39.931Z,1025.49
2018-09-27T06:35:49.620Z,1025.53
2018-09-27T06:36:59.736Z,1025.53
2018-09-27T06:38:08.656Z,1025.53
2018-09-27T06:39:18.337Z,1025.54
2018-09-27T06:40:28.010Z,1025.55
2018-09-27T06:41:37.436Z,1025.57
2018-09-27T06:42:47.154Z,1025.56
2018-09-27T06:43:56.579Z,1025.55
2018-09-27T06:45:05.763Z,1025.58
2018-09-27T06:46:15.721Z,1025.62
2018-09-27T06:47:24.640Z,1025.61
2018-09-27T06:48:34.393Z,1025.66
2018-09-27T06:49:44.215Z,1025.66
2018-09-27T06:50:53.639Z,1025.63
2018-09-27T06:52:03.335Z,1025.62
2018-09-27T06:53:12.496Z,1025.6
2018-09-27T06:54:21.657Z,1025.6
2018-09-27T06:55:31.175Z,1025.57
2018-09-27T06:56:41.814Z,1025.57
2018-09-27T06:57:51.491Z,1025.57
2018-09-27T06:59:00.918Z,1025.58
2018-09-27T07:00:10.345Z,1025.57
2018-09-27T07:01:19.776Z,1025.55
2018-09-27T07:02:29.473Z,1025.57
2018-09-27T07:03:39.572Z,1025.58
2018-09-27T07:04:48.773Z,1025.59
2018-09-27T07:05:59.034Z,1025.54
2018-09-27T07:07:07.753Z,1025.6
2018-09-27T07:08:17.624Z,1025.6
2018-09-27T07:09:27.700Z,1025.61
2018-09-27T07:10:37.151Z,1025.57
2018-09-27T07:11:46.326Z,1025.56
2018-09-27T07:12:56.701Z,1025.58
2018-09-27T07:14:06.391Z,1025.57
2018-09-27T07:15:15.569Z,1025.6
2018-09-27T07:16:25.029Z,1025.6
2018-09-27T07:17:33.941Z,1025.56
2018-09-27T07:18:43.429Z,1025.53
2018-09-27T07:19:53.634Z,1025.48
2018-09-27T07:21:02.810Z,1025.47
2018-09-27T07:22:12.508Z,1025.47
2018-09-27T07:23:21.927Z,1025.43
2018-09-27T07:24:31.874Z,1025.46
2018-09-27T07:25:40.808Z,1025.41
2018-09-27T07:26:50.681Z,1025.47
2018-09-27T07:28:00.346Z,1025.46
2018-09-27T07:29:09.009Z,1025.43
2018-09-27T07:30:18.696Z,1025.43
2018-09-27T07:31:28.385Z,1025.42
2018-09-27T07:32:38.153Z,1025.4
2018-09-27T07:33:47.780Z,1025.4
2018-09-27T07:34:57.933Z,1025.42
2018-09-27T07:36:06.840Z,1025.4
2018-09-27T07:37:16.512Z,1025.43
2018-09-27T07:38:25.703Z,1025.45
2018-09-27T07:39:35.338Z,1025.47
2018-09-27T07:40:45.013Z,1025.43
2018-09-27T07:41:54.686Z,1025.46
2018-09-27T07:43:03.863Z,1025.47
2018-09-27T07:44:13.549Z,1025.45
2018-09-27T07:45:23.552Z,1025.41
2018-09-27T07:46:32.986Z,1025.4
2018-09-27T07:47:42.455Z,1025.38
2018-09-27T07:48:51.361Z,1025.35
2018-09-27T07:50:00.786Z,1025.32
2018-09-27T07:51:10.210Z,1025.34
2018-09-27T07:52:20.188Z,1025.37
2018-09-27T07:53:29.629Z,1025.35
2018-09-27T07:54:38.613Z,1025.39
2018-09-27T07:55:48.276Z,1025.38
2018-09-27T07:56:57.502Z,1025.43
2018-09-27T07:58:06.429Z,1025.43
2018-09-27T07:59:15.865Z,1025.42
2018-09-27T08:00:24.521Z,1025.4
2018-09-27T08:01:34.520Z,1025.39
2018-09-27T08:02:44.116Z,1025.38
2018-09-27T08:03:54.384Z,1025.36
2018-09-27T08:05:04.248Z,1025.34
2018-09-27T08:06:13.933Z,1025.35
2018-09-27T08:07:23.364Z,1025.37
2018-09-27T08:08:32.597Z,1025.41
2018-09-27T08:09:42.560Z,1025.4
2018-09-27T08:10:52.029Z,1025.39
2018-09-27T08:12:01.921Z,1025.37
2018-09-27T08:13:11.490Z,1025.41
2018-09-27T08:14:20.674Z,1025.36
2018-09-27T08:15:30.798Z,1025.34
2018-09-27T08:16:39.746Z,1025.32
2018-09-27T08:17:49.838Z,1025.33
2018-09-27T08:18:59.527Z,1025.29
2018-09-27T08:20:08.701Z,1025.33
2018-09-27T08:21:18.092Z,1025.3
2018-09-27T08:22:27.755Z,1025.28
2018-09-27T08:23:37.855Z,1025.25
2018-09-27T08:24:47.107Z,1025.22
2018-09-27T08:25:56.528Z,1025.22
2018-09-27T08:27:05.961Z,1025.24
2018-09-27T08:28:15.414Z,1025.2
2018-09-27T08:29:25.108Z,1025.19
2018-09-27T08:30:34.850Z,1025.17
2018-09-27T08:31:44.527Z,1025.09
2018-09-27T08:32:53.937Z,1025.1
2018-09-27T08:34:03.094Z,1025.07
2018-09-27T08:35:12.276Z,1025.07
2018-09-27T08:36:21.968Z,1025.07
2018-09-27T08:37:31.397Z,1025.03
2018-09-27T08:38:40.860Z,1025
2018-09-27T08:39:51.388Z,1024.97
2018-09-27T08:41:00.884Z,1025.01
2018-09-27T08:42:09.812Z,1024.97
2018-09-27T08:43:19.497Z,1024.97
2018-09-27T08:44:28.682Z,1024.97
2018-09-27T08:45:38.683Z,1024.96
2018-09-27T08:46:49.527Z,1024.93
2018-09-27T08:47:58.446Z,1024.92
2018-09-27T08:49:08.130Z,1024.92
2018-09-27T08:50:17.292Z,1024.91
2018-09-27T08:51:27.005Z,1024.89
2018-09-27T08:52:36.968Z,1024.89
2018-09-27T08:53:46.572Z,1024.89
2018-09-27T08:54:56.251Z,1024.84
2018-09-27T08:56:05.875Z,1024.86
2018-09-27T08:57:15.733Z,1024.81
2018-09-27T08:58:25.495Z,1024.81
2018-09-27T08:59:35.188Z,1024.75
2018-09-27T09:00:44.938Z,1024.78
2018-09-27T09:01:54.652Z,1024.75
2018-09-27T09:03:04.074Z,1024.75
2018-09-27T09:04:13.776Z,1024.73
2018-09-27T09:05:22.966Z,1024.74
2018-09-27T09:06:32.402Z,1024.77
2018-09-27T09:07:42.153Z,1024.75
2018-09-27T09:08:52.267Z,1024.79
2018-09-27T09:10:01.694Z,1024.8
2018-09-27T09:11:11.385Z,1024.79
2018-09-27T09:12:21.343Z,1024.8
2018-09-27T09:13:30.773Z,1024.72
2018-09-27T09:14:40.853Z,1024.71
2018-09-27T09:15:50.326Z,1024.74
2018-09-27T09:16:59.239Z,1024.7
2018-09-27T09:18:08.921Z,1024.68
2018-09-27T09:19:18.351Z,1024.69
2018-09-27T09:20:27.988Z,1024.64
2018-09-27T09:21:37.487Z,1024.63
2018-09-27T09:22:47.539Z,1024.67
2018-09-27T09:23:57.215Z,1024.64
2018-09-27T09:25:06.655Z,1024.63
2018-09-27T09:26:16.346Z,1024.54
2018-09-27T09:27:25.565Z,1024.58
2018-09-27T09:28:34.917Z,1024.54
2018-09-27T09:29:45.244Z,1024.56
2018-09-27T09:30:54.844Z,1024.56
2018-09-27T09:32:04.291Z,1024.54
2018-09-27T09:33:13.728Z,1024.53
2018-09-27T09:34:23.436Z,1024.5
2018-09-27T09:35:32.899Z,1024.51
2018-09-27T09:36:43.272Z,1024.52
2018-09-27T09:37:52.713Z,1024.51
2018-09-27T09:39:02.140Z,1024.45
2018-09-27T09:40:11.316Z,1024.46
2018-09-27T09:41:20.998Z,1024.45
2018-09-27T09:42:30.676Z,1024.42
2018-09-27T09:43:40.102Z,1024.41
2018-09-27T09:44:49.547Z,1024.39
2018-09-27T09:45:59.225Z,1024.37
2018-09-27T09:47:08.401Z,1024.37
2018-09-27T09:48:17.824Z,1024.37
2018-09-27T09:49:26.775Z,1024.3
2018-09-27T09:50:36.204Z,1024.28
2018-09-27T09:51:45.905Z,1024.26
2018-09-27T09:52:55.843Z,1024.25
2018-09-27T09:54:05.258Z,1024.27
2018-09-27T09:55:15.231Z,1024.24
2018-09-27T09:56:24.912Z,1024.2
2018-09-27T09:57:34.362Z,1024.15
2018-09-27T09:58:43.265Z,1024.17
2018-09-27T09:59:52.694Z,1024.11
2018-09-27T10:01:02.360Z,1024.11
2018-09-27T10:02:11.807Z,1024.09
2018-09-27T10:03:21.328Z,1024.12
2018-09-27T10:04:30.735Z,1024.06
2018-09-27T10:05:40.221Z,1024.12
2018-09-27T10:06:49.895Z,1024.13
2018-09-27T10:07:59.579Z,1024.08
2018-09-27T10:09:08.484Z,1024.1
2018-09-27T10:10:17.896Z,1024.06
2018-09-27T10:11:27.054Z,1024.05
2018-09-27T10:12:36.492Z,1024.01
2018-09-27T10:13:45.664Z,1024.02
2018-09-27T10:14:55.078Z,1024.01
2018-09-27T10:16:36.598Z,1024
2018-09-27T10:17:46.272Z,1023.99
2018-09-27T10:18:55.707Z,1023.97
2018-09-27T10:20:04.612Z,1023.97
2018-09-27T10:21:13.767Z,1023.96
2018-09-27T10:22:23.451Z,1023.96
2018-09-27T10:23:32.873Z,1023.92
2018-09-27T10:24:42.316Z,1023.91
2018-09-27T10:25:51.757Z,1023.84
2018-09-27T10:27:00.971Z,1023.84
2018-09-27T10:28:10.193Z,1023.8
2018-09-27T10:29:19.881Z,1023.82
2018-09-27T10:30:30.011Z,1023.81
2018-09-27T10:31:39.208Z,1023.82
2018-09-27T10:32:48.913Z,1023.77
2018-09-27T10:33:58.065Z,1023.76
2018-09-27T10:35:07.916Z,1023.77
2018-09-27T10:36:17.608Z,1023.74
2018-09-27T10:37:27.284Z,1023.7
2018-09-27T10:38:37.157Z,1023.69
2018-09-27T10:39:47.125Z,1023.65
2018-09-27T10:40:56.051Z,1023.61
2018-09-27T10:42:05.212Z,1023.59
2018-09-27T10:43:14.433Z,1023.58
2018-09-27T10:44:23.368Z,1023.62
2018-09-27T10:45:32.541Z,1023.61
2018-09-27T10:46:42.225Z,1023.54
2018-09-27T10:47:51.911Z,1023.51
2018-09-27T10:49:01.108Z,1023.52
2018-09-27T10:50:10.794Z,1023.49
2018-09-27T10:51:19.739Z,1023.45
2018-09-27T10:52:29.496Z,1023.47
2018-09-27T10:53:39.178Z,1023.44
2018-09-27T10:54:48.866Z,1023.46
2018-09-27T10:55:58.552Z,1023.46
2018-09-27T10:57:08.587Z,1023.42
2018-09-27T10:58:19.083Z,1023.39
2018-09-27T10:59:28.533Z,1023.4
2018-09-27T11:00:38.379Z,1023.4
2018-09-27T11:01:48.068Z,1023.38
2018-09-27T11:02:57.499Z,1023.4
2018-09-27T11:04:07.480Z,1023.34
2018-09-27T11:05:17.605Z,1023.32
2018-09-27T11:06:27.140Z,1023.31
2018-09-27T11:07:36.575Z,1023.28
2018-09-27T11:08:46.267Z,1023.26
2018-09-27T11:09:55.711Z,1023.21
2018-09-27T11:11:05.436Z,1023.17
2018-09-27T11:12:15.839Z,1023.17
2018-09-27T11:13:25.285Z,1023.13
2018-09-27T11:14:34.701Z,1023.14
2018-09-27T11:15:44.393Z,1023.13
2018-09-27T11:16:54.502Z,1023.15
2018-09-27T11:18:03.948Z,1023.13
2018-09-27T11:19:13.384Z,1023.06
2018-09-27T11:20:22.855Z,1023.04
2018-09-27T11:21:32.818Z,1023.06
2018-09-27T11:22:42.494Z,1022.98
2018-09-27T11:23:52.253Z,1022.95
2018-09-27T11:25:01.936Z,1022.92
2018-09-27T11:26:11.103Z,1022.88
2018-09-27T11:27:20.272Z,1022.87
2018-09-27T11:28:29.758Z,1022.83
2018-09-27T11:29:39.447Z,1022.79
2018-09-27T11:30:49.106Z,1022.78
2018-09-27T11:31:58.574Z,1022.8
2018-09-27T11:33:08.022Z,1022.75
2018-09-27T11:34:17.920Z,1022.74
2018-09-27T11:35:27.894Z,1022.67
2018-09-27T11:36:37.578Z,1022.7
2018-09-27T11:37:47.012Z,1022.62
2018-09-27T11:38:56.189Z,1022.63
2018-09-27T11:40:05.874Z,1022.58
2018-09-27T11:41:15.558Z,1022.56
2018-09-27T11:42:25.084Z,1022.54
2018-09-27T11:43:35.272Z,1022.53
2018-09-27T11:44:44.690Z,1022.49
2018-09-27T11:45:54.129Z,1022.48
2018-09-27T11:47:04.084Z,1022.47
2018-09-27T11:48:13.512Z,1022.45
2018-09-27T11:49:22.754Z,1022.46
2018-09-27T11:50:33.809Z,1022.4
2018-09-27T11:51:43.752Z,1022.41
2018-09-27T11:52:52.666Z,1022.35
2018-09-27T11:54:01.846Z,1022.35
2018-09-27T11:55:11.414Z,1022.32
2018-09-27T11:56:21.203Z,1022.29
2018-09-27T11:57:30.380Z,1022.31
2018-09-27T11:58:39.817Z,1022.29
2018-09-27T11:59:48.993Z,1022.25
2018-09-27T12:00:58.257Z,1022.2
2018-09-27T12:02:07.683Z,1022.18
2018-09-27T12:03:17.124Z,1022.17
2018-09-27T12:04:26.020Z,1022.14
2018-09-27T12:05:35.714Z,1022.07
2018-09-27T12:06:45.478Z,1022.04
2018-09-27T12:07:55.661Z,1022.08
2018-09-27T12:09:05.096Z,1022.06
2018-09-27T12:10:14.782Z,1022.01
2018-09-27T12:11:23.932Z,1022.02
2018-09-27T12:12:33.903Z,1022.02
2018-09-27T12:13:43.318Z,1021.95
2018-09-27T12:14:52.511Z,1021.99
2018-09-27T12:16:01.943Z,1021.94
2018-09-27T12:17:11.622Z,1021.89
2018-09-27T12:18:20.802Z,1021.85
2018-09-27T12:19:30.805Z,1021.82
2018-09-27T12:20:41.306Z,1021.82
2018-09-27T12:21:50.993Z,1021.73
2018-09-27T12:22:59.977Z,1021.71
2018-09-27T12:24:09.235Z,1021.68
2018-09-27T12:25:18.903Z,1021.68
2018-09-27T12:26:28.738Z,1021.62
2018-09-27T12:27:38.741Z,1021.62
2018-09-27T12:28:47.944Z,1021.58
2018-09-27T12:29:57.705Z,1021.54
2018-09-27T12:31:06.657Z,1021.51
2018-09-27T12:32:16.380Z,1021.51
2018-09-27T12:33:25.561Z,1021.45
2018-09-27T12:34:35.495Z,1021.42
2018-09-27T12:35:45.171Z,1021.38
2018-09-27T12:36:55.139Z,1021.37
2018-09-27T12:38:04.823Z,1021.32
2018-09-27T12:39:14.041Z,1021.29
2018-09-27T12:40:23.515Z,1021.3
2018-09-27T12:41:33.748Z,1021.29
2018-09-27T12:42:44.366Z,1021.23
2018-09-27T12:43:54.359Z,1021.22
2018-09-27T12:45:03.297Z,1021.17
2018-09-27T12:46:12.472Z,1021.17
2018-09-27T12:47:22.639Z,1021.14
2018-09-27T12:48:32.191Z,1021.11
2018-09-27T12:49:43.357Z,1021.07
2018-09-27T12:50:52.544Z,1021.05
2018-09-27T12:52:02.223Z,1021
2018-09-27T12:53:13.565Z,1020.97
2018-09-27T12:54:23.452Z,1020.99
2018-09-27T12:55:32.624Z,1020.94
2018-09-27T12:56:42.596Z,1020.92
2018-09-27T12:57:52.291Z,1020.89
2018-09-27T12:59:01.207Z,1020.87
2018-09-27T13:00:10.894Z,1020.83
2018-09-27T13:01:20.328Z,1020.83
2018-09-27T13:02:30.380Z,1020.81
2018-09-27T13:03:40.157Z,1020.75
2018-09-27T13:04:49.614Z,1020.76
2018-09-27T13:05:59.290Z,1020.72
2018-09-27T13:07:09.063Z,1020.7
2018-09-27T13:08:19.072Z,1020.69
2018-09-27T13:09:28.786Z,1020.63
2018-09-27T13:10:39.242Z,1020.64
2018-09-27T13:11:48.167Z,1020.6
2018-09-27T13:12:57.818Z,1020.62
2018-09-27T13:14:07.176Z,1020.55
2018-09-27T13:15:16.613Z,1020.54
2018-09-27T13:16:26.565Z,1020.52
2018-09-27T13:17:35.883Z,1020.48
2018-09-27T13:18:45.302Z,1020.45
2018-09-27T13:19:58.688Z,1020.44
2018-09-27T13:21:09.282Z,1020.41
2018-09-27T13:22:18.969Z,1020.37
2018-09-27T13:23:28.157Z,1020.33
2018-09-27T13:24:37.926Z,1020.3
2018-09-27T13:25:47.091Z,1020.27
2018-09-27T13:26:56.544Z,1020.27
2018-09-27T13:28:06.271Z,1020.22
2018-09-27T13:29:15.959Z,1020.2
2018-09-27T13:30:25.130Z,1020.18
2018-09-27T13:31:34.566Z,1020.15
2018-09-27T13:32:44.009Z,1020.13
2018-09-27T13:33:53.215Z,1020.1
2018-09-27T13:35:02.769Z,1020.11
2018-09-27T13:36:12.220Z,1020.07
2018-09-27T13:37:22.177Z,1020.08
2018-09-27T13:38:32.121Z,1020.06
2018-09-27T13:39:41.555Z,1020.03
2018-09-27T13:40:51.114Z,1020.04
2018-09-27T13:42:00.534Z,1020
2018-09-27T13:43:09.760Z,1019.97
2018-09-27T13:44:19.000Z,1019.95
2018-09-27T13:45:28.688Z,1019.97
2018-09-27T13:46:38.378Z,1019.93
2018-09-27T13:47:47.932Z,1019.92
2018-09-27T13:48:57.209Z,1019.88
2018-09-27T13:50:07.755Z,1019.85
2018-09-27T13:51:17.212Z,1019.88
2018-09-27T13:52:26.409Z,1019.84
2018-09-27T13:53:36.103Z,1019.8
2018-09-27T13:54:45.295Z,1019.81
2018-09-27T13:55:55.360Z,1019.78
2018-09-27T13:57:04.761Z,1019.72
2018-09-27T13:58:14.553Z,1019.73
2018-09-27T13:59:24.521Z,1019.77
2018-09-27T14:00:33.452Z,1019.7
2018-09-27T14:01:42.630Z,1019.67
2018-09-27T14:02:52.373Z,1019.64
2018-09-27T14:04:02.567Z,1019.66
2018-09-27T14:05:11.983Z,1019.67